Time;durP1;ratioP1;P1;durP2;ratioP2;P2;SDS_P1;SDS_P2;PMS_P1;PMS_P2;Temp;Humidity;BMP_temperature;BMP_pressure;BME280_temperature;BME280_humidity;BME280_pressure;Samples;Min_cycle;Max_cycle;Signal;HPM_P1;HPM_P2
2022/10/08 00:00:51;;;;;;;9.40;7.38;;;;;;;15.42;nan;99790.72;4941305;29;20497;-78
2022/10/08 00:03:18;;;;;;;11.52;7.40;;;;;;;15.38;nan;99792.75;4941218;29;20927;-78
2022/10/08 00:06:04;;;;;;;8.57;7.78;;;;;;;15.33;nan;99794.09;4941319;28;20630;-78
2022/10/08 00:08:35;;;;;;;9.32;7.25;;;;;;;15.27;nan;99788.31;4944095;28;20923;-79
2022/10/08 00:11:03;;;;;;;7.32;6.65;;;;;;;15.22;nan;99798.44;4941142;29;20188;-79
2022/10/08 00:13:42;;;;;;;8.95;7.97;;;;;;;15.21;nan;99799.41;4941543;29;20261;-78
2022/10/08 00:16:11;;;;;;;9.18;6.90;;;;;;;15.17;nan;99794.47;4941029;29;20220;-78
2022/10/08 00:18:39;;;;;;;14.32;7.15;;;;;;;15.15;nan;99796.38;4941147;29;20185;-79
2022/10/08 00:21:13;;;;;;;8.93;7.38;;;;;;;15.12;nan;99796.63;4941534;29;20193;-78
2022/10/08 00:23:39;;;;;;;9.10;8.10;;;;;;;15.07;nan;99791.72;4941605;29;20192;-79
2022/10/08 00:26:06;;;;;;;10.98;7.28;;;;;;;15.03;nan;99792.91;4940832;28;20654;-78
2022/10/08 00:28:35;;;;;;;16.20;7.50;;;;;;;15.00;nan;99791.34;4941537;29;20193;-79
2022/10/08 00:31:10;;;;;;;11.30;7.40;;;;;;;14.97;nan;99796.06;4941344;28;20575;-78
2022/10/08 00:33:37;;;;;;;8.35;7.43;;;;;;;14.92;nan;99796.41;4945185;29;20193;-81
2022/10/08 00:36:09;;;;;;;8.25;7.10;;;;;;;14.89;nan;99798.47;4942026;29;20705;-78
2022/10/08 00:38:34;;;;;;;12.07;7.28;;;;;;;14.85;nan;99805.78;4942725;28;20201;-78
2022/10/08 00:41:00;;;;;;;10.00;6.87;;;;;;;14.82;nan;99798.97;4945035;28;20220;-79
2022/10/08 00:43:43;;;;;;;8.70;7.00;;;;;;;14.81;nan;99802.53;4945256;29;20189;-78
2022/10/08 00:46:29;;;;;;;13.02;7.43;;;;;;;14.82;nan;99798.97;4944534;29;20225;-79
2022/10/08 00:49:11;;;;;;;10.30;8.10;;;;;;;14.83;nan;99802.44;4945269;29;20567;-79
2022/10/08 00:51:50;;;;;;;9.98;7.30;;;;;;;14.80;nan;99800.88;4945319;29;20268;-79
2022/10/08 00:54:18;;;;;;;10.48;6.57;;;;;;;14.76;nan;99794.13;4945071;29;20314;-79
2022/10/08 00:56:46;;;;;;;9.80;7.43;;;;;;;14.74;nan;99801.34;4944765;28;20206;-78
2022/10/08 00:59:12;;;;;;;14.77;8.25;;;;;;;14.74;nan;99805.78;4944682;29;20197;-78
2022/10/08 01:01:41;;;;;;;10.10;7.47;;;;;;;14.76;nan;99799.41;4944827;28;20200;-78
2022/10/08 01:04:08;;;;;;;11.30;7.88;;;;;;;14.76;nan;99788.84;4944576;29;20184;-79
2022/10/08 01:06:52;;;;;;;11.25;7.55;;;;;;;14.71;nan;99791.00;4944075;29;20287;-78
2022/10/08 01:09:31;;;;;;;11.10;7.90;;;;;;;14.67;nan;99796.66;4944422;29;20208;-78
2022/10/08 01:12:11;;;;;;;8.20;7.45;;;;;;;14.62;nan;99793.53;4944095;29;20319;-78
2022/10/08 01:14:57;;;;;;;7.95;6.85;;;;;;;14.53;nan;99789.81;4944597;29;20247;-78
2022/10/08 01:17:25;;;;;;;6.07;5.53;;;;;;;14.45;nan;99784.22;4944355;29;20192;-78
2022/10/08 01:20:19;;;;;;;8.68;6.88;;;;;;;14.38;nan;99787.31;4944113;29;20638;-78
2022/10/08 01:23:06;;;;;;;7.80;7.00;;;;;;;14.34;nan;99777.97;4944109;29;20204;-78
2022/10/08 01:25:43;;;;;;;8.27;6.40;;;;;;;14.33;nan;99768.34;4944364;29;20513;-80
2022/10/08 01:28:19;;;;;;;12.27;7.05;;;;;;;14.34;nan;99763.91;4944643;29;20193;-79
2022/10/08 01:30:59;;;;;;;8.50;6.75;;;;;;;14.35;nan;99770.88;4945022;29;20208;-80
2022/10/08 01:33:32;;;;;;;11.10;6.82;;;;;;;14.38;nan;99770.63;4945230;29;20239;-80
2022/10/08 01:36:00;;;;;;;8.35;7.55;;;;;;;14.41;nan;99772.19;4945184;28;20212;-80
2022/10/08 01:38:30;;;;;;;15.50;10.65;;;;;;;14.44;nan;99761.38;4945540;28;20711;-79
2022/10/08 01:40:59;;;;;;;7.80;6.82;;;;;;;14.47;nan;99764.63;4944534;29;20721;-79
2022/10/08 01:43:30;;;;;;;8.20;7.20;;;;;;;14.49;nan;99753.94;4945026;29;20243;-79
2022/10/08 01:46:01;;;;;;;11.10;7.82;;;;;;;14.51;nan;99754.69;4944143;28;20527;-80
2022/10/08 01:48:32;;;;;;;8.68;7.20;;;;;;;14.54;nan;99751.81;4944888;28;20193;-80
2022/10/08 01:51:05;;;;;;;8.05;6.47;;;;;;;14.54;nan;99751.81;4943661;28;20194;-80
2022/10/08 01:53:36;;;;;;;10.65;6.75;;;;;;;14.55;nan;99758.78;4944618;28;20201;-80
2022/10/08 01:56:07;;;;;;;9.57;6.85;;;;;;;14.56;nan;99763.13;4944691;28;20209;-80
2022/10/08 01:58:49;;;;;;;8.50;7.05;;;;;;;14.50;nan;99745.91;4945225;29;20613;-79
2022/10/08 02:01:26;;;;;;;10.18;7.47;;;;;;;14.50;nan;99753.84;4926809;29;20746;-80
2022/10/08 02:06:41;;;;;;;9.40;6.95;;;;;;;14.49;nan;99754.78;4944354;29;20407;-80
2022/10/08 02:09:06;;;;;;;8.98;7.28;;;;;;;14.49;nan;99753.94;4945208;29;20197;-80
2022/10/08 02:11:34;;;;;;;8.07;5.73;;;;;;;14.48;nan;99747.00;4945769;29;20193;-79
2022/10/08 02:14:00;;;;;;;9.00;6.90;;;;;;;14.47;nan;99755.84;4944651;29;20945;-79
2022/10/08 02:16:28;;;;;;;7.90;7.10;;;;;;;14.46;nan;99751.53;4944986;28;20209;-79
2022/10/08 02:18:59;;;;;;;9.77;6.90;;;;;;;14.45;nan;99758.63;4943467;29;20768;-80
2022/10/08 02:21:26;;;;;;;8.48;6.82;;;;;;;14.44;nan;99758.75;4944512;28;20318;-80
2022/10/08 02:23:56;;;;;;;8.65;6.93;;;;;;;14.42;nan;99763.31;4944533;29;20212;-80
2022/10/08 02:26:30;;;;;;;7.50;6.35;;;;;;;14.39;nan;99762.59;4950810;28;20278;-80
2022/10/08 02:29:09;;;;;;;9.02;7.90;;;;;;;14.37;nan;99756.59;4951575;29;20205;-80
2022/10/08 02:31:46;;;;;;;9.88;6.65;;;;;;;14.35;nan;99765.59;4951225;29;20193;-80
2022/10/08 02:34:24;;;;;;;9.55;8.32;;;;;;;14.32;nan;99760.53;4951728;28;20659;-81
2022/10/08 02:37:21;;;;;;;7.63;6.57;;;;;;;14.28;nan;99761.72;4951425;29;20244;-80
2022/10/08 02:40:03;;;;;;;6.80;5.30;;;;;;;14.24;nan;99760.28;4950068;29;20232;-80
2022/10/08 02:42:31;;;;;;;6.57;5.72;;;;;;;14.19;nan;99755.34;4946105;28;20216;-79
2022/10/08 02:45:03;;;;;;;6.60;5.90;;;;;;;14.15;nan;99759.19;4942641;29;20196;-79
2022/10/08 02:47:32;;;;;;;8.60;6.45;;;;;;;14.09;nan;99762.28;4943420;28;20221;-79
2022/10/08 02:50:02;;;;;;;7.13;6.00;;;;;;;14.03;nan;99760.13;4942781;28;20577;-79
2022/10/08 02:52:34;;;;;;;10.23;6.70;;;;;;;13.97;nan;99760.59;4943593;29;20200;-80
2022/10/08 02:55:02;;;;;;;9.38;8.02;;;;;;;13.93;nan;99762.59;4943737;29;20215;-79
2022/10/08 02:57:43;;;;;;;10.93;7.30;;;;;;;13.90;nan;99762.81;4944440;29;20276;-79
2022/10/08 03:00:10;;;;;;;8.55;7.25;;;;;;;13.87;nan;99757.78;4943409;29;20685;-79
2022/10/08 03:02:49;;;;;;;10.50;7.10;;;;;;;13.86;nan;99777.22;4942975;28;20193;-79
2022/10/08 03:05:18;;;;;;;6.93;6.25;;;;;;;13.81;nan;99766.16;4942627;29;20217;-79
2022/10/08 03:07:45;;;;;;;9.10;7.38;;;;;;;13.78;nan;99764.59;4943214;29;20200;-79
2022/10/08 03:10:11;;;;;;;8.45;5.90;;;;;;;13.73;nan;99772.00;4942467;29;20205;-79
2022/10/08 03:12:37;;;;;;;6.60;5.45;;;;;;;13.69;nan;99770.53;4942541;29;20658;-79
2022/10/08 03:15:04;;;;;;;7.22;6.05;;;;;;;13.67;nan;99773.31;4943019;29;20211;-79
2022/10/08 03:17:36;;;;;;;7.85;6.47;;;;;;;13.62;nan;99769.31;4942498;29;20203;-79
2022/10/08 03:20:04;;;;;;;8.35;6.70;;;;;;;13.58;nan;99768.69;4941938;28;20216;-79
2022/10/08 03:22:30;;;;;;;10.82;6.85;;;;;;;13.57;nan;99784.66;4942614;29;20191;-80
2022/10/08 03:24:56;;;;;;;8.00;6.80;;;;;;;13.50;nan;99771.91;4942965;28;20205;-79
2022/10/08 03:27:21;;;;;;;9.57;6.97;;;;;;;13.49;nan;99785.22;4941490;29;20493;-80
2022/10/08 03:29:47;;;;;;;10.53;6.83;;;;;;;13.51;nan;99783.31;4942832;29;20193;-79
2022/10/08 03:32:12;;;;;;;6.93;6.03;;;;;;;13.54;nan;99787.53;4941838;29;20683;-79
2022/10/08 03:34:37;;;;;;;8.67;6.60;;;;;;;13.56;nan;99781.19;4962170;28;20383;-79
2022/10/08 03:37:03;;;;;;;9.37;7.10;;;;;;;13.60;nan;99779.97;4980849;28;20211;-79
2022/10/08 03:39:28;;;;;;;6.80;6.10;;;;;;;13.62;nan;99790.44;4981175;28;20210;-78
2022/10/08 03:41:54;;;;;;;10.73;7.20;;;;;;;13.63;nan;99785.03;4980887;28;20183;-79
2022/10/08 03:44:19;;;;;;;9.43;6.63;;;;;;;13.63;nan;99781.56;4980658;28;20214;-79
2022/10/08 03:46:45;;;;;;;10.60;6.53;;;;;;;13.62;nan;99782.53;4980860;28;20227;-79
2022/10/08 03:49:10;;;;;;;7.20;6.50;;;;;;;13.57;nan;99780.22;4972949;28;20941;-79
2022/10/08 03:51:35;;;;;;;9.80;6.53;;;;;;;13.53;nan;99781.41;4980749;28;20274;-79
2022/10/08 03:54:01;;;;;;;7.77;6.20;;;;;;;13.49;nan;99791.31;4980370;28;20222;-79
2022/10/08 03:56:26;;;;;;;6.40;5.77;;;;;;;13.49;nan;99785.22;4981082;28;20302;-79
2022/10/08 03:58:54;;;;;;;7.23;6.37;;;;;;;13.49;nan;99787.84;4980237;28;20250;-79
2022/10/08 04:01:20;;;;;;;8.32;7.13;;;;;;;13.49;nan;99793.97;4980616;28;20223;-80
2022/10/08 04:03:45;;;;;;;7.13;6.50;;;;;;;13.50;nan;99795.66;4980579;28;20179;-79
2022/10/08 04:06:11;;;;;;;9.77;7.20;;;;;;;13.52;nan;99800.81;4979864;28;20294;-79
2022/10/08 04:08:37;;;;;;;9.03;7.10;;;;;;;13.51;nan;99793.88;4980939;28;20529;-79
2022/10/08 04:11:04;;;;;;;12.17;9.23;;;;;;;13.50;nan;99793.03;4979598;28;20442;-79
2022/10/08 04:13:30;;;;;;;11.23;7.88;;;;;;;13.50;nan;99805.34;4980043;28;20192;-80
2022/10/08 04:16:04;;;;;;;10.93;8.27;;;;;;;13.50;nan;99808.00;4980468;28;20281;-79
2022/10/08 04:18:30;;;;;;;7.95;6.72;;;;;;;13.52;nan;99799.97;4980784;28;20549;-79
2022/10/08 04:21:00;;;;;;;9.17;8.27;;;;;;;13.52;nan;99799.97;4980123;28;20286;-79
2022/10/08 04:23:26;;;;;;;9.07;7.07;;;;;;;13.53;nan;99801.66;4979567;28;20195;-79
2022/10/08 04:25:53;;;;;;;11.77;7.75;;;;;;;13.57;nan;99796.06;4978549;28;20320;-81
2022/10/08 04:28:19;;;;;;;11.55;7.85;;;;;;;13.61;nan;99802.81;4983061;28;20713;-80
2022/10/08 04:30:59;;;;;;;10.00;7.20;;;;;;;13.63;nan;99798.22;4983176;28;20183;-82
2022/10/08 04:33:26;;;;;;;11.13;7.80;;;;;;;13.64;nan;99802.56;4983572;28;20184;-80
2022/10/08 04:35:52;;;;;;;7.85;7.05;;;;;;;13.65;nan;99803.41;4986786;28;20699;-82
2022/10/08 04:38:18;;;;;;;12.10;8.97;;;;;;;13.64;nan;99809.66;4982749;28;20188;-81
2022/10/08 04:40:43;;;;;;;8.83;7.57;;;;;;;13.63;nan;99816.72;4983925;28;20443;-82
2022/10/08 04:43:09;;;;;;;11.53;7.93;;;;;;;13.62;nan;99817.69;4984292;28;20186;-80
2022/10/08 04:45:40;;;;;;;7.13;6.50;;;;;;;13.58;nan;99821.47;4988560;28;20211;-82
2022/10/08 04:48:06;;;;;;;11.88;6.57;;;;;;;13.56;nan;99826.06;4988680;28;20195;-82
2022/10/08 04:50:31;;;;;;;9.80;7.17;;;;;;;13.53;nan;99813.09;4988736;28;20199;-80
2022/10/08 04:52:56;;;;;;;7.90;7.10;;;;;;;13.49;nan;99815.06;4988670;28;20194;-82
2022/10/08 04:55:23;;;;;;;7.47;6.70;;;;;;;13.46;nan;99825.84;4988358;28;20219;-81
2022/10/08 04:57:49;;;;;;;8.45;6.95;;;;;;;13.41;nan;99827.16;4983773;28;20199;-81
2022/10/08 05:00:14;;;;;;;9.07;6.67;;;;;;;13.35;nan;99828.44;4984148;28;20657;-82
2022/10/08 05:02:40;;;;;;;7.90;6.40;;;;;;;13.35;nan;99841.63;4984529;28;20660;-81
2022/10/08 05:05:06;;;;;;;7.80;6.90;;;;;;;13.36;nan;99853.00;4983875;28;20266;-81
2022/10/08 05:07:31;;;;;;;6.90;6.00;;;;;;;13.36;nan;99837.19;4987134;28;20216;-80
2022/10/08 05:09:56;;;;;;;7.27;6.43;;;;;;;13.34;nan;99842.59;4989023;28;20246;-81
2022/10/08 05:12:22;;;;;;;7.73;6.80;;;;;;;13.35;nan;99838.16;4989450;28;20267;-80
2022/10/08 05:14:47;;;;;;;12.53;7.13;;;;;;;13.35;nan;99846.91;4989096;28;20192;-80
2022/10/08 05:17:12;;;;;;;11.13;7.20;;;;;;;13.37;nan;99846.81;4984752;28;20286;-82
2022/10/08 05:19:38;;;;;;;8.50;6.33;;;;;;;13.38;nan;99841.41;4984012;28;20188;-81
2022/10/08 05:22:03;;;;;;;9.17;6.90;;;;;;;13.41;nan;99841.19;4983215;28;20188;-82
2022/10/08 05:24:29;;;;;;;6.30;5.70;;;;;;;13.42;nan;99842.88;4983491;28;20537;-80
2022/10/08 05:26:54;;;;;;;11.40;7.60;;;;;;;13.42;nan;99845.53;4986914;28;20620;-81
2022/10/08 05:29:19;;;;;;;9.63;7.07;;;;;;;13.45;nan;99847.94;4986942;28;20534;-80
2022/10/08 05:31:45;;;;;;;7.50;6.53;;;;;;;13.45;nan;99841.81;4985867;28;20279;-82
2022/10/08 05:34:14;;;;;;;11.03;6.63;;;;;;;13.47;nan;99848.69;4986352;28;20269;-80
2022/10/08 05:36:39;;;;;;;8.48;7.22;;;;;;;13.50;nan;99845.81;4986347;28;20228;-80
2022/10/08 05:39:06;;;;;;;7.90;6.53;;;;;;;13.52;nan;99844.84;4985696;28;20687;-80
2022/10/08 05:41:34;;;;;;;8.52;7.55;;;;;;;13.50;nan;99844.94;4986182;28;20183;-81
2022/10/08 05:44:02;;;;;;;7.30;6.50;;;;;;;13.51;nan;99838.72;4985659;28;20590;-80
2022/10/08 05:46:29;;;;;;;9.65;7.72;;;;;;;13.53;nan;99847.38;4972587;28;20225;-82
2022/10/08 05:48:57;;;;;;;8.38;7.60;;;;;;;13.54;nan;99849.06;4987263;28;20188;-81
2022/10/08 05:51:23;;;;;;;14.35;8.15;;;;;;;13.59;nan;99854.84;4986124;28;20179;-80
2022/10/08 05:53:50;;;;;;;9.63;7.75;;;;;;;13.64;nan;99852.72;4986873;28;20184;-83
2022/10/08 05:56:18;;;;;;;8.45;7.65;;;;;;;13.68;nan;99854.19;4986845;28;20215;-82
2022/10/08 05:58:44;;;;;;;13.43;8.70;;;;;;;13.71;nan;99859.22;4986720;28;20200;-80
2022/10/08 06:01:30;;;;;;;8.20;7.40;;;;;;;13.75;nan;99864.31;4986666;28;20187;-83
2022/10/08 06:04:01;;;;;;;11.10;10.10;;;;;;;13.77;nan;99857.09;4985523;28;20180;-80
2022/10/08 06:06:27;;;;;;;12.80;9.93;;;;;;;13.81;nan;99864.69;4985595;28;20208;-80
2022/10/08 06:08:54;;;;;;;9.93;7.73;;;;;;;13.80;nan;99870.06;4984491;28;20767;-81
2022/10/08 06:11:20;;;;;;;7.15;6.10;;;;;;;13.81;nan;99864.69;4985219;28;20939;-80
2022/10/08 06:13:45;;;;;;;8.20;7.37;;;;;;;13.84;nan;99876.84;4984383;28;20200;-80
2022/10/08 06:16:11;;;;;;;8.10;7.30;;;;;;;13.88;nan;99878.28;4984402;28;20215;-82
2022/10/08 06:18:39;;;;;;;8.83;7.50;;;;;;;13.91;nan;99876.28;4985547;28;20196;-77
2022/10/08 06:21:13;;;;;;;11.23;8.23;;;;;;;13.96;nan;99875.94;4984091;28;20199;-81
2022/10/08 06:23:43;;;;;;;10.45;8.10;;;;;;;14.00;nan;99885.31;4983996;28;20198;-83
2022/10/08 06:26:09;;;;;;;12.20;9.00;;;;;;;14.05;nan;99895.56;4985735;28;20436;-81
2022/10/08 06:28:36;;;;;;;11.50;8.67;;;;;;;14.10;nan;99901.34;4987212;28;20537;-81
2022/10/08 06:31:02;;;;;;;9.70;8.70;;;;;;;14.11;nan;99897.72;4987026;28;20235;-81
2022/10/08 06:33:28;;;;;;;9.10;8.30;;;;;;;14.11;nan;99892.44;4986717;28;20195;-83
2022/10/08 06:35:54;;;;;;;11.07;8.23;;;;;;;14.13;nan;99899.31;4986564;28;20951;-81
2022/10/08 06:38:20;;;;;;;11.90;8.70;;;;;;;14.17;nan;99898.09;4992817;28;20198;-83
2022/10/08 06:40:45;;;;;;;12.30;7.20;;;;;;;14.23;nan;99902.13;4992771;28;20576;-83
2022/10/08 06:43:12;;;;;;;10.63;6.60;;;;;;;14.23;nan;99904.75;4990593;28;20191;-83
2022/10/08 06:45:39;;;;;;;9.35;7.03;;;;;;;14.27;nan;99908.00;4989355;28;20306;-83
2022/10/08 06:48:04;;;;;;;11.07;7.82;;;;;;;14.30;nan;99907.78;4988717;28;20203;-83
2022/10/08 06:50:30;;;;;;;8.20;7.03;;;;;;;14.35;nan;99916.22;4987873;28;20176;-83
2022/10/08 06:52:55;;;;;;;10.20;7.47;;;;;;;14.38;nan;99910.69;4986739;28;20192;-83
2022/10/08 06:55:21;;;;;;;12.97;7.60;;;;;;;14.42;nan;99916.59;4986691;28;20248;-82
2022/10/08 06:57:47;;;;;;;9.87;8.30;;;;;;;14.48;nan;99924.06;4987785;28;20243;-83
2022/10/08 07:00:13;;;;;;;11.20;7.60;;;;;;;14.53;nan;99914.88;4988139;28;20188;-82
2022/10/08 07:02:38;;;;;;;10.07;7.90;;;;;;;14.62;nan;99917.78;4988410;28;20279;-82
2022/10/08 07:05:04;;;;;;;10.80;8.90;;;;;;;14.72;nan;99926.72;4987131;28;20211;-82
2022/10/08 07:07:29;;;;;;;17.13;11.60;;;;;;;14.85;nan;99930.09;4987040;28;20211;-82
2022/10/08 07:09:55;;;;;;;14.73;11.53;;;;;;;14.99;nan;99923.75;4987848;28;20445;-82
2022/10/08 07:12:20;;;;;;;19.23;12.10;;;;;;;15.11;nan;99925.44;4987079;28;20184;-82
2022/10/08 07:14:46;;;;;;;18.90;13.97;;;;;;;15.24;nan;99920.03;4988087;28;20645;-82
2022/10/08 07:17:11;;;;;;;19.30;14.70;;;;;;;15.35;nan;99921.84;4986531;28;20208;-82
2022/10/08 07:19:36;;;;;;;18.70;13.73;;;;;;;15.43;nan;99930.03;4987367;28;20219;-82
2022/10/08 07:22:02;;;;;;;17.33;13.37;;;;;;;15.47;nan;99924.38;4987362;28;20179;-83
2022/10/08 07:24:27;;;;;;;17.60;13.70;;;;;;;15.53;nan;99935.44;4974058;28;20245;-82
2022/10/08 07:26:52;;;;;;;15.23;12.93;;;;;;;15.57;nan;99944.81;4987413;28;20227;-82
2022/10/08 07:29:18;;;;;;;13.60;11.47;;;;;;;15.61;nan;99939.19;4987045;28;20188;-82
2022/10/08 07:31:43;;;;;;;13.47;12.13;;;;;;;15.63;nan;99947.81;4987708;28;20188;-82
2022/10/08 07:34:11;;;;;;;19.70;13.40;;;;;;;15.66;nan;99947.59;4987349;28;20255;-82
2022/10/08 07:36:37;;;;;;;18.65;13.63;;;;;;;15.67;nan;99949.28;4988181;28;20217;-82
2022/10/08 07:39:15;;;;;;;13.30;11.00;;;;;;;15.68;nan;99960.69;4988638;28;20196;-82
2022/10/08 07:41:41;;;;;;;17.08;12.32;;;;;;;15.67;nan;99964.31;4988488;28;20251;-82
2022/10/08 07:44:06;;;;;;;14.67;11.87;;;;;;;15.68;nan;99972.16;4987653;28;20673;-82
2022/10/08 07:46:35;;;;;;;16.83;13.00;;;;;;;15.74;nan;99959.41;4986924;28;20283;-82
2022/10/08 07:49:00;;;;;;;16.20;12.32;;;;;;;15.80;nan;99965.06;4986478;28;20447;-81
2022/10/08 07:51:30;;;;;;;16.97;12.73;;;;;;;15.90;nan;99959.84;4986643;28;20234;-82
2022/10/08 07:53:56;;;;;;;26.92;14.48;;;;;;;16.05;nan;99958.63;4986000;28;20583;-82
2022/10/08 07:56:21;;;;;;;18.05;14.00;;;;;;;16.23;nan;99961.59;4985634;28;20643;-82
2022/10/08 07:58:48;;;;;;;14.70;12.40;;;;;;;16.36;nan;99967.59;4986245;28;20184;-82
2022/10/08 08:01:21;;;;;;;16.42;13.75;;;;;;;16.43;nan;99962.63;4972459;28;20187;-82
2022/10/08 08:03:55;;;;;;;16.48;14.35;;;;;;;16.49;nan;99966.56;4987043;28;20198;-82
2022/10/08 08:06:22;;;;;;;14.73;11.85;;;;;;;16.53;nan;99962.72;4984027;28;20322;-82
2022/10/08 08:08:49;;;;;;;19.52;14.05;;;;;;;16.56;nan;99967.75;4984172;28;20201;-82
2022/10/08 08:11:17;;;;;;;15.60;13.03;;;;;;;16.59;nan;99967.50;4969365;28;20485;-82
2022/10/08 08:13:42;;;;;;;21.40;13.55;;;;;;;16.63;nan;99960.94;4983720;28;20242;-82
2022/10/08 08:16:12;;;;;;;21.50;12.47;;;;;;;16.69;nan;99962.25;4966577;28;20200;-82
2022/10/08 08:18:40;;;;;;;15.27;13.70;;;;;;;16.72;nan;99967.31;4982899;28;20481;-82
2022/10/08 08:21:08;;;;;;;13.35;10.48;;;;;;;16.73;nan;99963.69;4983319;28;20192;-82
2022/10/08 08:23:39;;;;;;;17.08;10.75;;;;;;;16.76;nan;99976.69;4983648;28;20189;-82
2022/10/08 08:26:10;;;;;;;15.07;10.20;;;;;;;16.76;nan;99958.97;4984416;28;20315;-83
2022/10/08 08:28:36;;;;;;;15.30;10.73;;;;;;;16.80;nan;99970.22;4984639;28;20195;-82
2022/10/08 08:31:07;;;;;;;11.13;9.97;;;;;;;16.82;nan;99962.94;4984071;28;20191;-82
2022/10/08 08:33:32;;;;;;;12.48;8.63;;;;;;;16.85;nan;99973.31;4983458;28;20184;-82
2022/10/08 08:35:58;;;;;;;11.80;8.50;;;;;;;16.89;nan;99988.00;4982918;28;20213;-82
2022/10/08 08:38:23;;;;;;;12.07;9.03;;;;;;;16.95;nan;99987.47;4983603;28;20203;-82
2022/10/08 08:40:48;;;;;;;10.30;7.47;;;;;;;17.01;nan;99989.63;4983289;28;20216;-82
2022/10/08 08:43:14;;;;;;;8.70;7.80;;;;;;;17.16;nan;99990.13;4983760;28;20224;-82
2022/10/08 08:45:41;;;;;;;9.23;6.87;;;;;;;17.59;nan;99996.22;4985050;28;20218;-82
2022/10/08 08:48:38;;;;;;;9.80;7.23;;;;;;;18.04;nan;99983.41;4985487;28;20209;-82
2022/10/08 08:51:03;;;;;;;10.17;5.90;;;;;;;18.27;nan;99985.81;4972886;28;20925;-82
2022/10/08 08:53:29;;;;;;;7.70;5.30;;;;;;;18.45;nan;99983.34;4985154;28;21023;-82
2022/10/08 08:55:58;;;;;;;6.80;4.97;;;;;;;18.54;nan;99985.97;4986201;28;20755;-82
2022/10/08 08:58:39;;;;;;;5.10;4.70;;;;;;;18.64;nan;99991.31;4985349;28;20444;-82
2022/10/08 09:01:07;;;;;;;5.13;4.03;;;;;;;18.89;nan;100000.56;4989340;28;20491;-82
2022/10/08 09:03:39;;;;;;;6.60;5.07;;;;;;;19.17;nan;99996.22;4989500;28;20199;-82
2022/10/08 09:06:11;;;;;;;4.33;3.93;;;;;;;19.37;nan;99997.00;4987285;28;20466;-82
2022/10/08 09:08:50;;;;;;;4.93;4.23;;;;;;;19.38;nan;99989.81;4989337;28;20431;-82
2022/10/08 09:11:19;;;;;;;4.10;3.40;;;;;;;19.42;nan;99999.22;4989066;28;20421;-82
2022/10/08 09:13:58;;;;;;;6.50;3.30;;;;;;;19.41;nan;100000.19;4979436;28;20421;-82
2022/10/08 09:16:26;;;;;;;5.00;3.07;;;;;;;19.30;nan;99995.03;4986958;28;20429;-82
2022/10/08 09:18:52;;;;;;;4.23;2.70;;;;;;;19.13;nan;100002.78;4988767;28;20789;-82
2022/10/08 09:21:18;;;;;;;5.23;3.07;;;;;;;19.03;nan;100004.63;4987312;28;20959;-82
2022/10/08 09:23:45;;;;;;;7.50;2.90;;;;;;;18.95;nan;100009.81;4989213;28;20188;-82
2022/10/08 09:26:20;;;;;;;2.53;2.33;;;;;;;18.91;nan;100014.59;4988314;28;20478;-83
2022/10/08 09:28:48;;;;;;;7.43;3.43;;;;;;;18.85;nan;100014.28;4989120;28;20409;-83
2022/10/08 09:31:31;;;;;;;5.27;2.93;;;;;;;18.87;nan;100012.34;4987975;28;20949;-83
2022/10/08 09:33:56;;;;;;;5.20;2.93;;;;;;;18.99;nan;100014.72;4989103;28;20931;-83
2022/10/08 09:36:29;;;;;;;10.67;2.70;;;;;;;19.09;nan;100011.19;4988937;28;20455;-83
2022/10/08 09:38:58;;;;;;;3.60;2.77;;;;;;;19.18;nan;100021.00;4989149;28;20196;-83
2022/10/08 09:41:27;;;;;;;4.50;2.77;;;;;;;19.19;nan;100015.53;4987967;28;20430;-82
2022/10/08 09:44:07;;;;;;;5.57;2.40;;;;;;;19.17;nan;100021.97;4987543;28;20690;-82
2022/10/08 09:46:32;;;;;;;3.50;2.23;;;;;;;19.19;nan;100025.34;4988481;28;20478;-83
2022/10/08 09:49:25;;;;;;;6.80;2.73;;;;;;;19.22;nan;100031.22;4989309;28;20608;-83
2022/10/08 09:51:51;;;;;;;3.87;3.43;;;;;;;19.28;nan;100036.94;4988444;28;20692;-83
2022/10/08 09:54:23;;;;;;;3.03;2.60;;;;;;;19.32;nan;100030.38;4988285;28;20432;-84
2022/10/08 09:56:52;;;;;;;4.00;2.53;;;;;;;19.41;nan;100024.16;4988540;28;20450;-81
2022/10/08 09:59:20;;;;;;;5.67;3.07;;;;;;;19.50;nan;100025.97;4988996;28;20438;-81
2022/10/08 10:01:46;;;;;;;5.90;3.33;;;;;;;19.58;nan;100033.25;4989059;28;20507;-81
2022/10/08 10:04:28;;;;;;;6.07;3.33;;;;;;;19.69;nan;100027.78;4989657;28;20435;-81
2022/10/08 10:06:54;;;;;;;2.67;2.03;;;;;;;19.79;nan;100025.88;4989302;28;20499;-81
2022/10/08 10:09:25;;;;;;;7.20;2.27;;;;;;;19.82;nan;100020.28;4977218;28;21021;-81
2022/10/08 10:11:57;;;;;;;4.83;2.60;;;;;;;19.86;nan;100021.66;4987705;28;20238;-81
2022/10/08 10:14:23;;;;;;;4.70;2.40;;;;;;;19.96;nan;100016.28;4988752;28;20783;-81
2022/10/08 10:16:55;;;;;;;6.30;2.53;;;;;;;20.02;nan;100021.03;4987374;28;20529;-81
2022/10/08 10:19:27;;;;;;;3.20;2.73;;;;;;;20.08;nan;100022.25;4987495;28;20179;-81
2022/10/08 10:22:08;;;;;;;3.67;2.30;;;;;;;20.10;nan;100028.28;4986964;28;21022;-81
2022/10/08 10:24:53;;;;;;;5.20;2.67;;;;;;;20.01;nan;100026.50;4988330;28;20488;-81
2022/10/08 10:27:21;;;;;;;2.47;2.27;;;;;;;19.94;nan;100026.25;4999663;23;20482;-73
2022/10/08 10:30:13;;;;;;;4.20;3.20;;;;;;;19.91;nan;100033.72;4975758;28;20509;-75
2022/10/08 10:32:57;;;;;;;4.20;2.57;;;;;;;19.84;nan;100023.63;4986294;28;20431;-75
2022/10/08 10:35:28;;;;;;;5.70;2.53;;;;;;;19.78;nan;100029.56;4992641;28;20442;-76
2022/10/08 10:37:59;;;;;;;6.23;3.00;;;;;;;19.66;nan;100042.22;4991844;28;20454;-75
2022/10/08 10:40:35;;;;;;;3.30;2.00;;;;;;;19.56;nan;100033.38;4993576;28;20446;-76
2022/10/08 10:43:31;;;;;;;3.43;2.23;;;;;;;19.54;nan;100034.50;4982377;28;20453;-76
2022/10/08 10:46:12;;;;;;;7.27;2.83;;;;;;;19.54;nan;100032.69;4981320;28;20935;-74
2022/10/08 10:48:37;;;;;;;4.93;2.40;;;;;;;19.63;nan;100025.63;4993544;28;20625;-75
2022/10/08 10:51:42;;;;;;;3.83;2.50;;;;;;;19.79;nan;100025.06;4992341;28;20884;-75
2022/10/08 10:54:24;;;;;;;5.20;2.53;;;;;;;20.01;nan;100026.50;4992348;28;20676;-75
2022/10/08 10:56:57;;;;;;;7.03;3.40;;;;;;;20.15;nan;100036.69;4991194;28;20440;-75
2022/10/08 10:59:35;;;;;;;2.00;1.80;;;;;;;20.23;nan;100017.28;4991269;28;20934;-75
2022/10/08 11:02:19;;;;;;;4.13;2.53;;;;;;;20.33;nan;100020.69;4990215;28;20443;-75
2022/10/08 11:05:03;;;;;;;5.20;3.30;;;;;;;20.41;nan;100020.78;4990000;28;20438;-75
2022/10/08 11:08:06;;;;;;;4.40;2.40;;;;;;;20.47;nan;100024.69;4989761;28;20524;-75
2022/10/08 11:10:53;;;;;;;2.90;2.60;;;;;;;20.58;nan;100018.31;4112741;28;10001691;-75
2022/10/08 11:13:26;;;;;;;4.47;2.37;;;;;;;20.68;nan;100019.06;4991669;28;20195;-75
2022/10/08 11:15:55;;;;;;;3.77;2.60;;;;;;;20.85;nan;100022.75;4990910;28;20430;-75
2022/10/08 11:18:42;;;;;;;5.27;3.00;;;;;;;20.94;nan;100024.50;4989486;28;20462;-75
2022/10/08 11:21:13;;;;;;;6.53;2.40;;;;;;;20.91;nan;100017.63;4989907;28;20446;-75
2022/10/08 11:24:08;;;;;;;4.47;2.83;;;;;;;20.90;nan;100023.09;4989414;28;20572;-75
2022/10/08 11:27:05;;;;;;;3.37;2.47;;;;;;;20.92;nan;100019.28;4954231;28;20938;-75
2022/10/08 11:29:56;;;;;;;6.00;2.90;;;;;;;21.02;nan;100018.38;4951950;28;20526;-75
2022/10/08 11:32:23;;;;;;;4.37;2.60;;;;;;;21.05;nan;100018.91;4989308;28;20451;-75
2022/10/08 11:35:13;;;;;;;4.40;2.67;;;;;;;21.10;nan;100013.94;4990404;28;20901;-75
2022/10/08 11:38:09;;;;;;;4.97;3.20;;;;;;;21.20;nan;100011.19;4990175;28;21284;-75
2022/10/08 11:40:43;;;;;;;3.20;2.80;;;;;;;21.26;nan;100010.53;4990472;28;20874;-76
2022/10/08 11:43:12;;;;;;;3.40;3.10;;;;;;;21.37;nan;100012.97;4990398;28;20814;-76
2022/10/08 11:45:44;;;;;;;5.57;2.80;;;;;;;21.44;nan;100015.84;4991465;28;20442;-76
2022/10/08 11:48:29;;;;;;;8.07;4.00;;;;;;;21.47;nan;100006.66;4991020;28;20518;-76
2022/10/08 11:51:18;;;;;;;6.33;3.63;;;;;;;21.47;nan;100001.31;4991193;28;20430;-75
2022/10/08 11:54:13;;;;;;;6.23;3.60;;;;;;;21.45;nan;100009.53;4991170;28;20440;-76
2022/10/08 11:56:45;;;;;;;3.90;3.20;;;;;;;21.42;nan;99999.97;4991736;28;20411;-76
2022/10/08 11:59:39;;;;;;;5.97;2.70;;;;;;;21.31;nan;100000.22;4990837;28;20467;-75
2022/10/08 12:02:21;;;;;;;3.93;3.17;;;;;;;21.23;nan;99999.34;4990076;28;20434;-76
2022/10/08 12:04:49;;;;;;;6.90;3.80;;;;;;;21.17;nan;99998.09;4990687;28;20822;-76